sensor_id;sensor_type;location;lat;lon;timestamp;temperature;humidity
10431;DHT22;5262;59.958;17.726;2022-12-18T00:02:14;0.00;99.90
10431;DHT22;5262;59.958;17.726;2022-12-18T00:04:39;0.00;99.90
10431;DHT22;5262;59.958;17.726;2022-12-18T00:07:05;0.00;99.90
10431;DHT22;5262;59.958;17.726;2022-12-18T00:09:31;0.00;99.90
10431;DHT22;5262;59.958;17.726;2022-12-18T00:11:56;0.00;99.90
10431;DHT22;5262;59.958;17.726;2022-12-18T00:14:22;0.00;99.90
10431;DHT22;5262;59.958;17.726;2022-12-18T00:16:48;0.00;99.90
10431;DHT22;5262;59.958;17.726;2022-12-18T00:19:14;0.00;99.90
10431;DHT22;5262;59.958;17.726;2022-12-18T00:21:41;0.00;99.90
10431;DHT22;5262;59.958;17.726;2022-12-18T00:24:07;0.00;99.90
10431;DHT22;5262;59.958;17.726;2022-12-18T00:26:34;0.10;99.90
10431;DHT22;5262;59.958;17.726;2022-12-18T00:29:19;0.10;99.90
10431;DHT22;5262;59.958;17.726;2022-12-18T00:31:45;0.10;99.90
10431;DHT22;5262;59.958;17.726;2022-12-18T00:34:12;0.10;99.90
10431;DHT22;5262;59.958;17.726;2022-12-18T00:36:39;0.10;99.90
10431;DHT22;5262;59.958;17.726;2022-12-18T00:39:05;0.10;99.90
10431;DHT22;5262;59.958;17.726;2022-12-18T00:41:31;0.10;99.90
10431;DHT22;5262;59.958;17.726;2022-12-18T00:44:17;0.10;99.90
10431;DHT22;5262;59.958;17.726;2022-12-18T00:46:43;0.10;99.90
10431;DHT22;5262;59.958;17.726;2022-12-18T00:49:09;0.10;99.90
10431;DHT22;5262;59.958;17.726;2022-12-18T00:51:35;0.10;99.90
10431;DHT22;5262;59.958;17.726;2022-12-18T00:54:01;0.10;99.90
10431;DHT22;5262;59.958;17.726;2022-12-18T00:56:27;0.20;99.90
10431;DHT22;5262;59.958;17.726;2022-12-18T00:58:52;0.10;99.90
10431;DHT22;5262;59.958;17.726;2022-12-18T01:01:18;0.10;99.90
10431;DHT22;5262;59.958;17.726;2022-12-18T01:03:43;0.20;99.90
10431;DHT22;5262;59.958;17.726;2022-12-18T01:06:12;0.20;99.90
10431;DHT22;5262;59.958;17.726;2022-12-18T01:08:38;0.20;99.90
10431;DHT22;5262;59.958;17.726;2022-12-18T01:11:16;0.20;99.90
10431;DHT22;5262;59.958;17.726;2022-12-18T01:13:43;0.20;99.90
10431;DHT22;5262;59.958;17.726;2022-12-18T01:16:11;0.20;99.90
10431;DHT22;5262;59.958;17.726;2022-12-18T01:18:37;0.20;99.90
10431;DHT22;5262;59.958;17.726;2022-12-18T01:21:11;0.20;99.90
10431;DHT22;5262;59.958;17.726;2022-12-18T01:23:37;0.30;99.90
10431;DHT22;5262;59.958;17.726;2022-12-18T01:26:16;0.30;99.90
10431;DHT22;5262;59.958;17.726;2022-12-18T01:28:42;0.30;99.90
10431;DHT22;5262;59.958;17.726;2022-12-18T01:31:19;0.30;99.90
10431;DHT22;5262;59.958;17.726;2022-12-18T01:33:45;0.30;99.90
10431;DHT22;5262;59.958;17.726;2022-12-18T01:36:19;0.30;99.90
10431;DHT22;5262;59.958;17.726;2022-12-18T01:38:46;0.30;99.90
10431;DHT22;5262;59.958;17.726;2022-12-18T01:41:12;0.30;99.90
10431;DHT22;5262;59.958;17.726;2022-12-18T01:43:42;0.30;99.90
10431;DHT22;5262;59.958;17.726;2022-12-18T01:46:08;0.30;99.90
10431;DHT22;5262;59.958;17.726;2022-12-18T01:48:34;0.30;99.90
10431;DHT22;5262;59.958;17.726;2022-12-18T01:51:00;0.30;99.90
10431;DHT22;5262;59.958;17.726;2022-12-18T01:53:26;0.30;99.90
10431;DHT22;5262;59.958;17.726;2022-12-18T01:55:55;0.30;99.90
10431;DHT22;5262;59.958;17.726;2022-12-18T01:58:32;0.40;99.90
10431;DHT22;5262;59.958;17.726;2022-12-18T02:01:00;0.40;99.90
10431;DHT22;5262;59.958;17.726;2022-12-18T02:03:26;0.30;99.90
10431;DHT22;5262;59.958;17.726;2022-12-18T02:11:57;0.30;99.90
10431;DHT22;5262;59.958;17.726;2022-12-18T02:14:39;0.40;99.90
10431;DHT22;5262;59.958;17.726;2022-12-18T02:17:35;0.30;99.90
10431;DHT22;5262;59.958;17.726;2022-12-18T02:25:40;0.30;99.90
10431;DHT22;5262;59.958;17.726;2022-12-18T02:28:13;0.30;99.90
10431;DHT22;5262;59.958;17.726;2022-12-18T02:30:42;0.30;99.90
10431;DHT22;5262;59.958;17.726;2022-12-18T02:33:08;0.30;99.90
10431;DHT22;5262;59.958;17.726;2022-12-18T02:35:37;0.30;99.90
10431;DHT22;5262;59.958;17.726;2022-12-18T02:38:04;0.30;99.90
10431;DHT22;5262;59.958;17.726;2022-12-18T02:40:30;0.30;99.90
10431;DHT22;5262;59.958;17.726;2022-12-18T02:43:03;0.30;99.90
10431;DHT22;5262;59.958;17.726;2022-12-18T02:45:32;0.20;99.90
10431;DHT22;5262;59.958;17.726;2022-12-18T02:47:57;0.20;99.90
10431;DHT22;5262;59.958;17.726;2022-12-18T02:53:39;0.30;99.90
10431;DHT22;5262;59.958;17.726;2022-12-18T02:56:13;0.20;99.90
10431;DHT22;5262;59.958;17.726;2022-12-18T02:59:00;0.30;99.90
10431;DHT22;5262;59.958;17.726;2022-12-18T03:01:34;0.30;99.90
10431;DHT22;5262;59.958;17.726;2022-12-18T03:06:57;0.30;99.90
10431;DHT22;5262;59.958;17.726;2022-12-18T03:09:35;0.30;99.90
10431;DHT22;5262;59.958;17.726;2022-12-18T03:12:12;0.30;99.90
10431;DHT22;5262;59.958;17.726;2022-12-18T03:15:42;0.30;99.90
10431;DHT22;5262;59.958;17.726;2022-12-18T03:18:16;0.30;99.90
10431;DHT22;5262;59.958;17.726;2022-12-18T03:20:44;0.30;99.90
10431;DHT22;5262;59.958;17.726;2022-12-18T03:23:15;0.30;99.90
10431;DHT22;5262;59.958;17.726;2022-12-18T03:25:44;0.30;99.90
10431;DHT22;5262;59.958;17.726;2022-12-18T03:28:13;0.20;99.90
10431;DHT22;5262;59.958;17.726;2022-12-18T03:30:43;0.20;99.90
10431;DHT22;5262;59.958;17.726;2022-12-18T03:33:16;0.20;99.90
10431;DHT22;5262;59.958;17.726;2022-12-18T03:35:45;0.30;99.90
10431;DHT22;5262;59.958;17.726;2022-12-18T03:38:11;0.30;99.90
10431;DHT22;5262;59.958;17.726;2022-12-18T03:41:04;0.20;99.90
10431;DHT22;5262;59.958;17.726;2022-12-18T03:46:15;0.20;99.90
10431;DHT22;5262;59.958;17.726;2022-12-18T03:48:46;0.20;99.90
10431;DHT22;5262;59.958;17.726;2022-12-18T03:54:03;0.20;99.90
10431;DHT22;5262;59.958;17.726;2022-12-18T03:56:40;0.20;99.90
10431;DHT22;5262;59.958;17.726;2022-12-18T03:59:09;0.20;99.90
10431;DHT22;5262;59.958;17.726;2022-12-18T04:01:43;0.20;99.90
10431;DHT22;5262;59.958;17.726;2022-12-18T04:04:12;0.20;99.90
10431;DHT22;5262;59.958;17.726;2022-12-18T04:06:40;0.20;99.90
10431;DHT22;5262;59.958;17.726;2022-12-18T04:09:07;0.20;99.90
10431;DHT22;5262;59.958;17.726;2022-12-18T04:11:33;0.20;99.90
10431;DHT22;5262;59.958;17.726;2022-12-18T04:13:59;0.20;99.90
10431;DHT22;5262;59.958;17.726;2022-12-18T04:16:25;0.20;99.90
10431;DHT22;5262;59.958;17.726;2022-12-18T04:18:52;0.20;99.90
10431;DHT22;5262;59.958;17.726;2022-12-18T04:21:19;0.20;99.90
10431;DHT22;5262;59.958;17.726;2022-12-18T04:23:44;0.10;99.90
10431;DHT22;5262;59.958;17.726;2022-12-18T04:26:10;0.10;99.90
10431;DHT22;5262;59.958;17.726;2022-12-18T04:28:36;0.10;99.90
10431;DHT22;5262;59.958;17.726;2022-12-18T04:31:02;0.10;99.90
10431;DHT22;5262;59.958;17.726;2022-12-18T04:33:28;0.10;99.90
10431;DHT22;5262;59.958;17.726;2022-12-18T04:35:53;0.10;99.90
10431;DHT22;5262;59.958;17.726;2022-12-18T04:38:19;0.10;99.90
10431;DHT22;5262;59.958;17.726;2022-12-18T04:40:44;0.10;99.90
10431;DHT22;5262;59.958;17.726;2022-12-18T04:43:10;0.10;99.90
10431;DHT22;5262;59.958;17.726;2022-12-18T04:45:36;0.10;99.90
10431;DHT22;5262;59.958;17.726;2022-12-18T04:48:02;0.10;99.90
10431;DHT22;5262;59.958;17.726;2022-12-18T04:50:28;0.10;99.90
10431;DHT22;5262;59.958;17.726;2022-12-18T04:52:54;0.10;99.90
10431;DHT22;5262;59.958;17.726;2022-12-18T04:55:20;0.10;99.90
10431;DHT22;5262;59.958;17.726;2022-12-18T04:57:46;0.10;99.90
10431;DHT22;5262;59.958;17.726;2022-12-18T05:00:12;0.10;99.90
10431;DHT22;5262;59.958;17.726;2022-12-18T05:02:38;0.10;99.90
10431;DHT22;5262;59.958;17.726;2022-12-18T05:05:04;0.00;99.90
10431;DHT22;5262;59.958;17.726;2022-12-18T05:07:30;0.00;99.90
10431;DHT22;5262;59.958;17.726;2022-12-18T05:09:55;0.00;99.90
10431;DHT22;5262;59.958;17.726;2022-12-18T05:12:21;0.00;99.90
10431;DHT22;5262;59.958;17.726;2022-12-18T05:14:47;0.00;99.90
10431;DHT22;5262;59.958;17.726;2022-12-18T05:17:12;0.00;99.90
10431;DHT22;5262;59.958;17.726;2022-12-18T05:19:38;0.00;99.90
10431;DHT22;5262;59.958;17.726;2022-12-18T05:22:03;0.00;99.90
10431;DHT22;5262;59.958;17.726;2022-12-18T05:24:29;-0.10;99.90
10431;DHT22;5262;59.958;17.726;2022-12-18T05:26:55;-0.10;99.90
10431;DHT22;5262;59.958;17.726;2022-12-18T05:29:20;-0.10;99.90
10431;DHT22;5262;59.958;17.726;2022-12-18T05:31:46;-0.10;99.90
10431;DHT22;5262;59.958;17.726;2022-12-18T05:34:11;-0.10;99.90
10431;DHT22;5262;59.958;17.726;2022-12-18T05:36:37;-0.10;99.90
10431;DHT22;5262;59.958;17.726;2022-12-18T05:39:03;-0.10;99.90
10431;DHT22;5262;59.958;17.726;2022-12-18T05:41:29;-0.20;99.90
10431;DHT22;5262;59.958;17.726;2022-12-18T05:43:54;-0.10;99.90
10431;DHT22;5262;59.958;17.726;2022-12-18T05:46:20;-0.10;99.90
10431;DHT22;5262;59.958;17.726;2022-12-18T05:48:46;-0.20;99.90
10431;DHT22;5262;59.958;17.726;2022-12-18T05:51:16;-0.10;99.90
10431;DHT22;5262;59.958;17.726;2022-12-18T05:53:42;-0.10;99.90
10431;DHT22;5262;59.958;17.726;2022-12-18T05:56:14;-0.10;99.90
10431;DHT22;5262;59.958;17.726;2022-12-18T05:58:40;-0.10;99.90
10431;DHT22;5262;59.958;17.726;2022-12-18T06:01:18;-0.10;99.90
10431;DHT22;5262;59.958;17.726;2022-12-18T06:03:44;-0.10;99.90
10431;DHT22;5262;59.958;17.726;2022-12-18T06:06:18;-0.10;99.90
10431;DHT22;5262;59.958;17.726;2022-12-18T06:08:45;-0.10;99.90
10431;DHT22;5262;59.958;17.726;2022-12-18T06:11:11;-0.10;99.90
10431;DHT22;5262;59.958;17.726;2022-12-18T06:13:37;-0.20;99.90
10431;DHT22;5262;59.958;17.726;2022-12-18T06:16:06;-0.20;99.90
10431;DHT22;5262;59.958;17.726;2022-12-18T06:18:32;-0.20;99.90
10431;DHT22;5262;59.958;17.726;2022-12-18T06:20:59;-0.20;99.90
10431;DHT22;5262;59.958;17.726;2022-12-18T06:23:25;-0.20;99.90
10431;DHT22;5262;59.958;17.726;2022-12-18T06:25:51;-0.10;99.90
10431;DHT22;5262;59.958;17.726;2022-12-18T06:28:16;-0.20;99.90
10431;DHT22;5262;59.958;17.726;2022-12-18T06:30:46;-0.20;99.90
10431;DHT22;5262;59.958;17.726;2022-12-18T06:33:14;-0.20;99.90
10431;DHT22;5262;59.958;17.726;2022-12-18T06:35:40;-0.20;99.90
10431;DHT22;5262;59.958;17.726;2022-12-18T06:38:05;-0.10;99.90
10431;DHT22;5262;59.958;17.726;2022-12-18T06:40:31;-0.20;99.90
10431;DHT22;5262;59.958;17.726;2022-12-18T06:42:57;-0.10;99.90
10431;DHT22;5262;59.958;17.726;2022-12-18T06:45:22;-0.10;99.90
10431;DHT22;5262;59.958;17.726;2022-12-18T06:47:48;-0.10;99.90
10431;DHT22;5262;59.958;17.726;2022-12-18T06:50:14;-0.20;99.90
10431;DHT22;5262;59.958;17.726;2022-12-18T06:52:39;-0.10;99.90
10431;DHT22;5262;59.958;17.726;2022-12-18T06:55:10;-0.20;99.90
10431;DHT22;5262;59.958;17.726;2022-12-18T06:57:36;-0.10;99.90
10431;DHT22;5262;59.958;17.726;2022-12-18T07:00:03;-0.10;99.90
10431;DHT22;5262;59.958;17.726;2022-12-18T07:02:29;-0.20;99.90
10431;DHT22;5262;59.958;17.726;2022-12-18T07:04:54;-0.10;99.90
10431;DHT22;5262;59.958;17.726;2022-12-18T07:07:20;-0.10;99.90
10431;DHT22;5262;59.958;17.726;2022-12-18T07:09:46;-0.20;99.90
10431;DHT22;5262;59.958;17.726;2022-12-18T07:12:11;-0.20;99.90
10431;DHT22;5262;59.958;17.726;2022-12-18T07:14:37;-0.10;99.90
10431;DHT22;5262;59.958;17.726;2022-12-18T07:17:02;-0.10;99.90
10431;DHT22;5262;59.958;17.726;2022-12-18T07:19:29;-0.10;99.90
10431;DHT22;5262;59.958;17.726;2022-12-18T07:21:54;-0.20;99.90
10431;DHT22;5262;59.958;17.726;2022-12-18T07:24:20;-0.10;99.90
10431;DHT22;5262;59.958;17.726;2022-12-18T07:26:46;-0.10;99.90
10431;DHT22;5262;59.958;17.726;2022-12-18T07:29:12;-0.10;99.90
10431;DHT22;5262;59.958;17.726;2022-12-18T07:31:37;-0.10;99.90
10431;DHT22;5262;59.958;17.726;2022-12-18T07:34:03;-0.10;99.90
10431;DHT22;5262;59.958;17.726;2022-12-18T07:36:28;-0.10;99.90
10431;DHT22;5262;59.958;17.726;2022-12-18T07:38:54;-0.10;99.90
10431;DHT22;5262;59.958;17.726;2022-12-18T07:41:20;-0.10;99.90
10431;DHT22;5262;59.958;17.726;2022-12-18T07:43:46;-0.10;99.90
10431;DHT22;5262;59.958;17.726;2022-12-18T07:46:13;-0.10;99.90
10431;DHT22;5262;59.958;17.726;2022-12-18T07:48:43;-0.10;99.90
10431;DHT22;5262;59.958;17.726;2022-12-18T07:51:09;-0.10;99.90
10431;DHT22;5262;59.958;17.726;2022-12-18T07:53:36;0.00;99.90
10431;DHT22;5262;59.958;17.726;2022-12-18T07:56:04;-0.10;99.90
10431;DHT22;5262;59.958;17.726;2022-12-18T07:58:31;0.00;99.90
10431;DHT22;5262;59.958;17.726;2022-12-18T08:01:07;-0.10;99.90
10431;DHT22;5262;59.958;17.726;2022-12-18T08:03:33;-0.10;99.90
10431;DHT22;5262;59.958;17.726;2022-12-18T08:06:04;0.00;99.90
10431;DHT22;5262;59.958;17.726;2022-12-18T08:08:30;-0.10;99.90
10431;DHT22;5262;59.958;17.726;2022-12-18T08:10:56;-0.10;99.90
10431;DHT22;5262;59.958;17.726;2022-12-18T08:13:22;0.00;99.90
10431;DHT22;5262;59.958;17.726;2022-12-18T08:16:03;0.00;99.90
10431;DHT22;5262;59.958;17.726;2022-12-18T08:18:31;0.00;99.90
10431;DHT22;5262;59.958;17.726;2022-12-18T08:21:11;0.00;99.90
10431;DHT22;5262;59.958;17.726;2022-12-18T08:23:38;0.00;99.90
10431;DHT22;5262;59.958;17.726;2022-12-18T08:26:05;0.00;99.90
10431;DHT22;5262;59.958;17.726;2022-12-18T08:28:31;0.00;99.90
10431;DHT22;5262;59.958;17.726;2022-12-18T08:30:56;0.00;99.90
10431;DHT22;5262;59.958;17.726;2022-12-18T08:33:22;0.00;99.90
10431;DHT22;5262;59.958;17.726;2022-12-18T08:35:48;0.00;99.90
10431;DHT22;5262;59.958;17.726;2022-12-18T08:38:14;0.10;99.90
10431;DHT22;5262;59.958;17.726;2022-12-18T08:40:40;0.10;99.90
10431;DHT22;5262;59.958;17.726;2022-12-18T08:43:07;0.10;99.90
10431;DHT22;5262;59.958;17.726;2022-12-18T08:45:51;0.10;99.90
10431;DHT22;5262;59.958;17.726;2022-12-18T08:48:17;0.10;99.90
10431;DHT22;5262;59.958;17.726;2022-12-18T08:50:43;0.10;99.90
10431;DHT22;5262;59.958;17.726;2022-12-18T08:53:08;0.20;99.90
10431;DHT22;5262;59.958;17.726;2022-12-18T08:55:34;0.20;99.90
10431;DHT22;5262;59.958;17.726;2022-12-18T08:58:00;0.20;99.90
10431;DHT22;5262;59.958;17.726;2022-12-18T09:00:26;0.20;99.90
10431;DHT22;5262;59.958;17.726;2022-12-18T09:02:51;0.20;99.90
10431;DHT22;5262;59.958;17.726;2022-12-18T09:05:17;0.30;99.90
10431;DHT22;5262;59.958;17.726;2022-12-18T09:07:43;0.20;99.90
10431;DHT22;5262;59.958;17.726;2022-12-18T09:10:09;0.20;99.90
10431;DHT22;5262;59.958;17.726;2022-12-18T09:12:34;0.30;99.90
10431;DHT22;5262;59.958;17.726;2022-12-18T09:15:00;0.40;99.90
10431;DHT22;5262;59.958;17.726;2022-12-18T09:17:25;0.40;99.90
10431;DHT22;5262;59.958;17.726;2022-12-18T09:19:51;0.40;99.90
10431;DHT22;5262;59.958;17.726;2022-12-18T09:22:17;0.40;99.90
10431;DHT22;5262;59.958;17.726;2022-12-18T09:24:42;0.40;99.90
10431;DHT22;5262;59.958;17.726;2022-12-18T09:27:08;0.30;99.90
10431;DHT22;5262;59.958;17.726;2022-12-18T09:29:34;0.40;99.90
10431;DHT22;5262;59.958;17.726;2022-12-18T09:31:59;0.40;99.90
10431;DHT22;5262;59.958;17.726;2022-12-18T09:34:25;0.40;99.90
10431;DHT22;5262;59.958;17.726;2022-12-18T09:36:50;0.40;99.90
10431;DHT22;5262;59.958;17.726;2022-12-18T09:39:16;0.40;99.90
10431;DHT22;5262;59.958;17.726;2022-12-18T09:44:22;0.40;99.90
10431;DHT22;5262;59.958;17.726;2022-12-18T09:47:02;0.40;99.90
10431;DHT22;5262;59.958;17.726;2022-12-18T09:49:31;0.40;99.90
10431;DHT22;5262;59.958;17.726;2022-12-18T09:52:10;0.40;99.90
10431;DHT22;5262;59.958;17.726;2022-12-18T09:54:41;0.50;99.90
10431;DHT22;5262;59.958;17.726;2022-12-18T09:57:18;0.50;99.90
10431;DHT22;5262;59.958;17.726;2022-12-18T09:59:50;0.50;99.90
10431;DHT22;5262;59.958;17.726;2022-12-18T10:02:22;0.50;99.90
10431;DHT22;5262;59.958;17.726;2022-12-18T10:05:10;0.60;99.90
10431;DHT22;5262;59.958;17.726;2022-12-18T10:10:28;0.60;99.90
10431;DHT22;5262;59.958;17.726;2022-12-18T10:13:23;0.60;99.90
10431;DHT22;5262;59.958;17.726;2022-12-18T10:15:58;0.60;99.90
10431;DHT22;5262;59.958;17.726;2022-12-18T10:21:36;0.70;99.90
10431;DHT22;5262;59.958;17.726;2022-12-18T10:27:17;0.70;99.90
10431;DHT22;5262;59.958;17.726;2022-12-18T10:29:44;0.70;99.90
10431;DHT22;5262;59.958;17.726;2022-12-18T10:32:20;0.70;99.90
10431;DHT22;5262;59.958;17.726;2022-12-18T10:34:47;0.70;99.90
10431;DHT22;5262;59.958;17.726;2022-12-18T10:37:23;0.80;99.90
10431;DHT22;5262;59.958;17.726;2022-12-18T10:40:10;0.70;99.90
10431;DHT22;5262;59.958;17.726;2022-12-18T10:42:36;0.80;99.90
10431;DHT22;5262;59.958;17.726;2022-12-18T10:45:11;0.80;99.90
10431;DHT22;5262;59.958;17.726;2022-12-18T10:47:46;0.80;99.90
10431;DHT22;5262;59.958;17.726;2022-12-18T10:50:33;0.80;99.90
10431;DHT22;5262;59.958;17.726;2022-12-18T10:53:01;0.80;99.90
10431;DHT22;5262;59.958;17.726;2022-12-18T10:55:38;0.80;99.90
10431;DHT22;5262;59.958;17.726;2022-12-18T10:58:27;0.80;99.90
10431;DHT22;5262;59.958;17.726;2022-12-18T11:03:42;0.90;99.90
10431;DHT22;5262;59.958;17.726;2022-12-18T11:06:14;0.90;99.90
10431;DHT22;5262;59.958;17.726;2022-12-18T11:08:42;0.90;99.90
10431;DHT22;5262;59.958;17.726;2022-12-18T11:11:28;1.00;99.90
10431;DHT22;5262;59.958;17.726;2022-12-18T11:16:26;1.00;99.90
10431;DHT22;5262;59.958;17.726;2022-12-18T11:18:52;1.10;99.90
10431;DHT22;5262;59.958;17.726;2022-12-18T11:21:18;1.10;99.90
10431;DHT22;5262;59.958;17.726;2022-12-18T11:23:53;1.20;99.90
10431;DHT22;5262;59.958;17.726;2022-12-18T11:26:19;1.20;99.90
10431;DHT22;5262;59.958;17.726;2022-12-18T11:28:55;1.20;99.90
10431;DHT22;5262;59.958;17.726;2022-12-18T11:31:32;1.20;99.90
10431;DHT22;5262;59.958;17.726;2022-12-18T11:34:24;1.30;99.90
10431;DHT22;5262;59.958;17.726;2022-12-18T11:36:52;1.20;99.90
10431;DHT22;5262;59.958;17.726;2022-12-18T11:42:01;1.20;99.90
10431;DHT22;5262;59.958;17.726;2022-12-18T11:50:14;1.40;99.90
10431;DHT22;5262;59.958;17.726;2022-12-18T11:52:41;1.30;99.90
10431;DHT22;5262;59.958;17.726;2022-12-18T11:55:13;1.40;99.90
10431;DHT22;5262;59.958;17.726;2022-12-18T12:00:56;1.40;99.90
10431;DHT22;5262;59.958;17.726;2022-12-18T12:15:17;1.50;99.90
10431;DHT22;5262;59.958;17.726;2022-12-18T12:18:01;1.50;99.90
10431;DHT22;5262;59.958;17.726;2022-12-18T12:20:59;1.50;99.90
10431;DHT22;5262;59.958;17.726;2022-12-18T12:23:53;1.50;99.90
10431;DHT22;5262;59.958;17.726;2022-12-18T12:37:50;1.60;99.90
10431;DHT22;5262;59.958;17.726;2022-12-18T12:40:24;1.60;99.90
10431;DHT22;5262;59.958;17.726;2022-12-18T12:42:56;1.60;99.90
10431;DHT22;5262;59.958;17.726;2022-12-18T12:46:05;1.60;99.90
10431;DHT22;5262;59.958;17.726;2022-12-18T12:51:20;1.50;99.90
10431;DHT22;5262;59.958;17.726;2022-12-18T12:53:47;1.60;99.90
10431;DHT22;5262;59.958;17.726;2022-12-18T12:56:15;1.60;99.90
10431;DHT22;5262;59.958;17.726;2022-12-18T13:01:19;1.70;99.90
10431;DHT22;5262;59.958;17.726;2022-12-18T13:06:50;1.80;99.90
10431;DHT22;5262;59.958;17.726;2022-12-18T13:09:18;1.80;99.90
10431;DHT22;5262;59.958;17.726;2022-12-18T13:11:45;1.80;99.90
10431;DHT22;5262;59.958;17.726;2022-12-18T13:14:35;1.80;99.90
10431;DHT22;5262;59.958;17.726;2022-12-18T13:22:39;1.80;99.90
10431;DHT22;5262;59.958;17.726;2022-12-18T13:25:34;1.80;99.90
10431;DHT22;5262;59.958;17.726;2022-12-18T13:28:05;1.80;99.90
10431;DHT22;5262;59.958;17.726;2022-12-18T13:36:29;1.80;99.90
10431;DHT22;5262;59.958;17.726;2022-12-18T13:41:43;1.80;99.90
10431;DHT22;5262;59.958;17.726;2022-12-18T13:46:59;2.00;99.90
10431;DHT22;5262;59.958;17.726;2022-12-18T13:49:36;1.90;99.90
10431;DHT22;5262;59.958;17.726;2022-12-18T13:52:03;1.90;99.90
10431;DHT22;5262;59.958;17.726;2022-12-18T13:54:41;1.80;99.90
10431;DHT22;5262;59.958;17.726;2022-12-18T13:57:30;1.80;99.90
10431;DHT22;5262;59.958;17.726;2022-12-18T13:59:57;1.80;99.90
10431;DHT22;5262;59.958;17.726;2022-12-18T14:02:25;1.80;99.90
10431;DHT22;5262;59.958;17.726;2022-12-18T14:04:51;1.80;99.90
10431;DHT22;5262;59.958;17.726;2022-12-18T14:07:21;1.80;99.90
10431;DHT22;5262;59.958;17.726;2022-12-18T14:09:50;1.80;99.90
10431;DHT22;5262;59.958;17.726;2022-12-18T14:12:33;1.90;99.90
10431;DHT22;5262;59.958;17.726;2022-12-18T14:15:27;1.90;99.90
10431;DHT22;5262;59.958;17.726;2022-12-18T14:18:19;1.90;99.90
10431;DHT22;5262;59.958;17.726;2022-12-18T14:20:45;2.00;99.90
10431;DHT22;5262;59.958;17.726;2022-12-18T14:25:53;2.10;99.90
10431;DHT22;5262;59.958;17.726;2022-12-18T14:28:18;2.20;99.90
10431;DHT22;5262;59.958;17.726;2022-12-18T14:30:45;2.20;99.90
10431;DHT22;5262;59.958;17.726;2022-12-18T14:33:17;2.20;99.90
10431;DHT22;5262;59.958;17.726;2022-12-18T14:41:01;2.30;99.90
10431;DHT22;5262;59.958;17.726;2022-12-18T14:43:33;2.20;99.90
10431;DHT22;5262;59.958;17.726;2022-12-18T14:46:00;2.20;99.90
10431;DHT22;5262;59.958;17.726;2022-12-18T14:48:37;2.20;99.90
10431;DHT22;5262;59.958;17.726;2022-12-18T14:51:16;2.20;99.90
10431;DHT22;5262;59.958;17.726;2022-12-18T14:53:44;2.10;99.90
10431;DHT22;5262;59.958;17.726;2022-12-18T14:56:22;2.20;99.90
10431;DHT22;5262;59.958;17.726;2022-12-18T14:58:52;2.20;99.90
10431;DHT22;5262;59.958;17.726;2022-12-18T15:01:20;2.10;99.90
10431;DHT22;5262;59.958;17.726;2022-12-18T15:03:48;2.10;99.90
10431;DHT22;5262;59.958;17.726;2022-12-18T15:06:27;2.20;99.90
10431;DHT22;5262;59.958;17.726;2022-12-18T15:08:54;2.20;99.90
10431;DHT22;5262;59.958;17.726;2022-12-18T15:11:44;2.20;99.90
10431;DHT22;5262;59.958;17.726;2022-12-18T15:14:28;2.10;99.90
10431;DHT22;5262;59.958;17.726;2022-12-18T15:16:57;2.10;99.90
10431;DHT22;5262;59.958;17.726;2022-12-18T15:19:32;2.10;99.90
10431;DHT22;5262;59.958;17.726;2022-12-18T15:21:59;2.10;99.90
10431;DHT22;5262;59.958;17.726;2022-12-18T15:24:30;2.10;99.90
10431;DHT22;5262;59.958;17.726;2022-12-18T15:26:58;2.10;99.90
10431;DHT22;5262;59.958;17.726;2022-12-18T15:29:24;2.10;99.90
10431;DHT22;5262;59.958;17.726;2022-12-18T15:32:01;2.10;99.90
10431;DHT22;5262;59.958;17.726;2022-12-18T15:34:27;2.10;99.90
10431;DHT22;5262;59.958;17.726;2022-12-18T15:36:53;2.00;99.90
10431;DHT22;5262;59.958;17.726;2022-12-18T15:39:18;2.10;99.90
10431;DHT22;5262;59.958;17.726;2022-12-18T15:41:44;2.00;99.90
10431;DHT22;5262;59.958;17.726;2022-12-18T15:44:30;2.10;99.90
10431;DHT22;5262;59.958;17.726;2022-12-18T15:46:56;2.00;99.90
10431;DHT22;5262;59.958;17.726;2022-12-18T15:49:22;2.00;99.90
10431;DHT22;5262;59.958;17.726;2022-12-18T15:51:52;2.00;99.90
10431;DHT22;5262;59.958;17.726;2022-12-18T15:54:19;2.00;99.90
10431;DHT22;5262;59.958;17.726;2022-12-18T15:57:07;1.90;99.90
10431;DHT22;5262;59.958;17.726;2022-12-18T15:59:48;1.90;99.90
10431;DHT22;5262;59.958;17.726;2022-12-18T16:02:16;1.90;99.90
10431;DHT22;5262;59.958;17.726;2022-12-18T16:04:42;1.80;99.90
10431;DHT22;5262;59.958;17.726;2022-12-18T16:07:09;1.80;99.90
10431;DHT22;5262;59.958;17.726;2022-12-18T16:09:35;1.80;99.90
10431;DHT22;5262;59.958;17.726;2022-12-18T16:12:01;1.80;99.90
10431;DHT22;5262;59.958;17.726;2022-12-18T16:14:29;1.70;99.90
10431;DHT22;5262;59.958;17.726;2022-12-18T16:17:03;1.70;99.90
10431;DHT22;5262;59.958;17.726;2022-12-18T16:19:30;1.70;99.90
10431;DHT22;5262;59.958;17.726;2022-12-18T16:21:57;1.60;99.90
10431;DHT22;5262;59.958;17.726;2022-12-18T16:24:33;1.60;99.90
10431;DHT22;5262;59.958;17.726;2022-12-18T16:27:01;1.50;99.90
10431;DHT22;5262;59.958;17.726;2022-12-18T16:29:28;1.50;99.90
10431;DHT22;5262;59.958;17.726;2022-12-18T16:31:58;1.50;99.90
10431;DHT22;5262;59.958;17.726;2022-12-18T16:34:26;1.50;99.90
10431;DHT22;5262;59.958;17.726;2022-12-18T16:36:59;1.40;99.90
10431;DHT22;5262;59.958;17.726;2022-12-18T16:39:25;1.30;99.90
10431;DHT22;5262;59.958;17.726;2022-12-18T16:41:51;1.30;99.90
10431;DHT22;5262;59.958;17.726;2022-12-18T16:44:17;1.20;99.90
10431;DHT22;5262;59.958;17.726;2022-12-18T16:46:43;1.20;99.90
10431;DHT22;5262;59.958;17.726;2022-12-18T16:49:15;1.20;99.90
10431;DHT22;5262;59.958;17.726;2022-12-18T16:51:41;1.20;99.90
10431;DHT22;5262;59.958;17.726;2022-12-18T16:54:07;1.10;99.90
10431;DHT22;5262;59.958;17.726;2022-12-18T16:56:33;1.00;99.90
10431;DHT22;5262;59.958;17.726;2022-12-18T16:59:00;0.90;99.90
10431;DHT22;5262;59.958;17.726;2022-12-18T17:01:27;0.90;99.90
10431;DHT22;5262;59.958;17.726;2022-12-18T17:03:58;0.90;99.90
10431;DHT22;5262;59.958;17.726;2022-12-18T17:06:25;0.80;99.90
10431;DHT22;5262;59.958;17.726;2022-12-18T17:09:13;0.70;99.90
10431;DHT22;5262;59.958;17.726;2022-12-18T17:11:39;0.60;99.90
10431;DHT22;5262;59.958;17.726;2022-12-18T17:14:11;0.60;99.90
10431;DHT22;5262;59.958;17.726;2022-12-18T17:16:37;0.60;99.90
10431;DHT22;5262;59.958;17.726;2022-12-18T17:19:03;0.50;99.90
10431;DHT22;5262;59.958;17.726;2022-12-18T17:21:29;0.40;99.90
10431;DHT22;5262;59.958;17.726;2022-12-18T17:23:55;0.40;99.90
10431;DHT22;5262;59.958;17.726;2022-12-18T17:26:23;0.30;99.90
10431;DHT22;5262;59.958;17.726;2022-12-18T17:28:49;0.30;99.90
10431;DHT22;5262;59.958;17.726;2022-12-18T17:31:20;0.20;99.90
10431;DHT22;5262;59.958;17.726;2022-12-18T17:33:47;0.20;99.90
10431;DHT22;5262;59.958;17.726;2022-12-18T17:36:13;0.20;99.90
10431;DHT22;5262;59.958;17.726;2022-12-18T17:38:39;0.10;99.90
10431;DHT22;5262;59.958;17.726;2022-12-18T17:41:06;0.10;99.90
10431;DHT22;5262;59.958;17.726;2022-12-18T17:43:33;0.10;99.90
10431;DHT22;5262;59.958;17.726;2022-12-18T17:46:05;0.00;99.90
10431;DHT22;5262;59.958;17.726;2022-12-18T17:48:31;0.00;99.90